createdAt,value
2022-08-22T00:00:16.142Z,4.68
2022-08-22T00:02:49.791Z,4.15
2022-08-22T00:02:54.995Z,4.03
2022-08-22T00:03:28.439Z,5.45
2022-08-22T00:06:48.725Z,4.63
2022-08-22T00:09:48.785Z,4.65
2022-08-22T00:12:59.653Z,4.88
2022-08-22T00:16:00.958Z,5.05
2022-08-22T00:19:03.368Z,4.63
2022-08-22T00:22:02.111Z,5.00
2022-08-22T00:25:25.687Z,4.78
2022-08-22T00:28:28.172Z,4.65
2022-08-22T00:31:21.782Z,4.93
2022-08-22T00:34:22.699Z,5.57
2022-08-22T00:37:24.480Z,4.57
2022-08-22T00:40:33.413Z,4.88
2022-08-22T00:43:48.129Z,4.60
2022-08-22T00:47:04.337Z,4.65
2022-08-22T00:50:20.565Z,5.30
2022-08-22T00:53:26.015Z,5.43
2022-08-22T00:56:31.583Z,4.47
2022-08-22T00:59:42.416Z,4.97
2022-08-22T01:02:51.863Z,5.13
2022-08-22T01:05:49.453Z,5.07
2022-08-22T01:09:04.184Z,4.68
2022-08-22T01:15:11.954Z,4.40
2022-08-22T01:18:20.339Z,4.80
2022-08-22T01:21:48.710Z,4.47
2022-08-22T01:25:18.388Z,5.32
2022-08-22T01:28:42.567Z,5.10
2022-08-22T01:32:09.997Z,4.50
2022-08-22T01:35:24.146Z,4.63
2022-08-22T01:38:59.043Z,4.80
2022-08-22T01:42:20.226Z,5.03
2022-08-22T01:45:32.559Z,4.70
2022-08-22T01:48:38.804Z,5.40
2022-08-22T01:51:44.805Z,5.32
2022-08-22T01:54:51.052Z,5.00
2022-08-22T01:57:57.446Z,5.10
2022-08-22T02:00:57.027Z,5.97
2022-08-22T02:04:09.646Z,5.55
2022-08-22T02:07:11.574Z,5.30
2022-08-22T02:10:39.124Z,5.88
2022-08-22T02:13:54.632Z,5.95
2022-08-22T02:16:50.710Z,5.90
2022-08-22T02:19:49.986Z,6.22
2022-08-22T02:22:57.522Z,6.05
2022-08-22T02:26:02.568Z,5.75
2022-08-22T02:29:04.694Z,6.00
2022-08-22T02:32:09.218Z,5.82
2022-08-22T02:38:13.827Z,5.95
2022-08-22T02:41:12.551Z,5.97
2022-08-22T02:44:18.797Z,6.45
2022-08-22T02:47:10.703Z,6.22
2022-08-22T02:50:12.700Z,6.03
2022-08-22T02:53:21.836Z,6.20
2022-08-22T02:56:22.304Z,6.22
2022-08-22T02:59:27.256Z,5.93
2022-08-22T03:02:32.263Z,5.88
2022-08-22T03:05:46.373Z,5.82
2022-08-22T03:08:42.917Z,5.70
2022-08-22T03:11:45.671Z,5.70
2022-08-22T03:14:44.624Z,5.65
2022-08-22T03:17:48.183Z,5.35
2022-08-22T03:20:46.718Z,5.57
2022-08-22T03:23:40.789Z,5.85
2022-08-22T03:26:58.020Z,5.38
2022-08-22T03:29:54.946Z,5.05
2022-08-22T03:33:18.600Z,5.38
2022-08-22T03:36:18.092Z,5.57
2022-08-22T03:39:17.806Z,5.50
2022-08-22T03:42:27.047Z,5.30
2022-08-22T03:45:55.599Z,5.72
2022-08-22T03:49:07.126Z,5.53
2022-08-22T03:52:24.309Z,5.93
2022-08-22T03:55:36.792Z,5.63
2022-08-22T03:59:01.575Z,5.63
2022-08-22T04:02:42.094Z,5.50
2022-08-22T04:06:42.765Z,4.93
2022-08-22T04:09:59.053Z,6.57
2022-08-22T04:13:11.159Z,5.57
2022-08-22T04:16:29.902Z,5.13
2022-08-22T04:19:32.467Z,6.55
2022-08-22T04:22:47.849Z,6.47
2022-08-22T04:28:37.671Z,5.55
2022-08-22T04:31:34.568Z,5.85
2022-08-22T04:34:34.317Z,6.30
2022-08-22T04:37:36.161Z,6.40
2022-08-22T04:40:43.460Z,6.00
2022-08-22T04:43:47.485Z,7.05
2022-08-22T04:46:45.610Z,6.40
2022-08-22T04:49:43.420Z,6.88
2022-08-22T04:52:48.904Z,7.55
2022-08-22T04:55:56.463Z,6.47
2022-08-22T04:58:58.314Z,6.43
2022-08-22T05:02:05.989Z,6.93
2022-08-22T05:05:04.283Z,7.05
2022-08-22T05:07:59.605Z,6.65
2022-08-22T05:10:52.456Z,7.22
2022-08-22T05:13:48.684Z,7.85
2022-08-22T05:16:41.921Z,7.25
2022-08-22T05:19:37.440Z,7.82
2022-08-22T05:22:36.563Z,7.25
2022-08-22T05:25:31.215Z,8.05
2022-08-22T05:28:33.972Z,7.95
2022-08-22T05:31:29.357Z,7.57
2022-08-22T05:34:23.950Z,7.53
2022-08-22T05:37:20.511Z,7.65
2022-08-22T05:40:20.819Z,9.13
2022-08-22T05:43:12.609Z,9.13
2022-08-22T05:46:07.822Z,8.27
2022-08-22T05:49:00.477Z,9.55
2022-08-22T05:52:19.503Z,8.63
2022-08-22T05:55:27.802Z,8.55
2022-08-22T05:58:37.866Z,8.32
2022-08-22T06:01:46.415Z,9.18
2022-08-22T06:04:45.805Z,8.07
2022-08-22T06:07:48.424Z,8.93
2022-08-22T06:10:48.097Z,8.30
2022-08-22T06:13:42.295Z,7.65
2022-08-22T06:16:49.146Z,8.70
2022-08-22T06:19:44.071Z,7.60
2022-08-22T06:22:38.308Z,8.55
2022-08-22T06:25:33.482Z,7.88
2022-08-22T06:28:27.711Z,7.55
2022-08-22T06:31:22.264Z,7.28
2022-08-22T06:34:15.947Z,7.15
2022-08-22T06:37:11.399Z,6.50
2022-08-22T06:40:04.899Z,7.57
2022-08-22T06:42:57.143Z,7.15
2022-08-22T06:45:48.643Z,6.40
2022-08-22T06:48:38.957Z,6.30
2022-08-22T06:51:29.854Z,6.03
2022-08-22T06:54:25.148Z,7.20
2022-08-22T06:57:30.253Z,6.88
2022-08-22T07:00:20.501Z,6.95
2022-08-22T07:03:20.361Z,6.72
2022-08-22T07:06:29.744Z,6.32
2022-08-22T07:09:28.569Z,6.93
2022-08-22T07:12:21.594Z,6.03
2022-08-22T07:15:20.680Z,6.00
2022-08-22T07:18:24.733Z,6.80
2022-08-22T07:21:25.272Z,5.60
2022-08-22T07:24:24.628Z,6.43
2022-08-22T07:27:42.502Z,6.15
2022-08-22T07:30:54.394Z,6.18
2022-08-22T07:33:49.265Z,5.85
2022-08-22T07:39:59.260Z,5.28
2022-08-22T07:43:13.373Z,5.63
2022-08-22T07:46:35.115Z,5.60
2022-08-22T07:49:37.260Z,5.47
2022-08-22T07:52:44.731Z,4.55
2022-08-22T07:55:41.066Z,5.57
2022-08-22T07:58:42.987Z,4.57
2022-08-22T08:01:34.249Z,4.33
2022-08-22T08:04:30.747Z,4.72
2022-08-22T08:07:28.141Z,4.28
2022-08-22T08:10:34.542Z,4.35
2022-08-22T08:13:33.923Z,4.20
2022-08-22T08:16:30.908Z,4.45
2022-08-22T08:19:22.582Z,4.22
2022-08-22T08:22:18.426Z,4.00
2022-08-22T08:25:12.888Z,4.53
2022-08-22T08:28:23.903Z,4.00
2022-08-22T08:31:27.440Z,4.07
2022-08-22T08:34:22.457Z,4.15
2022-08-22T08:37:23.169Z,4.05
2022-08-22T08:40:27.998Z,3.47
2022-08-22T08:43:53.033Z,3.67
2022-08-22T08:47:00.069Z,3.63
2022-08-22T08:50:11.680Z,3.78
2022-08-22T08:53:41.195Z,3.88
2022-08-22T08:56:57.970Z,3.80
2022-08-22T09:00:14.240Z,3.40
2022-08-22T09:03:12.008Z,3.40
2022-08-22T09:06:33.613Z,3.92
2022-08-22T09:09:45.521Z,3.58
2022-08-22T09:12:59.780Z,3.78
2022-08-22T09:16:10.299Z,3.80
2022-08-22T09:19:24.469Z,3.45
2022-08-22T09:22:50.605Z,3.67
2022-08-22T09:25:50.446Z,3.50
2022-08-22T09:29:18.279Z,3.40
2022-08-22T09:32:19.043Z,3.28
2022-08-22T09:35:20.680Z,3.20
2022-08-22T09:38:41.214Z,3.65
2022-08-22T09:41:53.462Z,3.72
2022-08-22T09:45:06.755Z,3.40
2022-08-22T09:48:13.447Z,3.30
2022-08-22T09:51:33.196Z,3.22
2022-08-22T09:54:31.781Z,3.55
2022-08-22T09:57:33.820Z,3.63
2022-08-22T10:00:32.408Z,3.60
2022-08-22T10:03:51.784Z,3.45
2022-08-22T10:07:11.755Z,3.80
2022-08-22T10:10:27.168Z,3.50
2022-08-22T10:13:41.869Z,3.58
2022-08-22T10:16:44.178Z,3.45
2022-08-22T10:19:42.893Z,3.75
2022-08-22T10:22:40.242Z,3.30
2022-08-22T10:26:22.581Z,3.17
2022-08-22T10:29:37.936Z,2.70
2022-08-22T10:32:37.636Z,3.03
2022-08-22T10:35:33.982Z,3.30
2022-08-22T10:38:32.315Z,3.35
2022-08-22T10:41:28.778Z,3.15
2022-08-22T10:44:24.394Z,3.35
2022-08-22T10:47:23.984Z,2.97
2022-08-22T10:50:35.429Z,3.33
2022-08-22T10:53:34.872Z,3.00
2022-08-22T10:56:43.846Z,3.42
2022-08-22T10:59:46.857Z,3.00
2022-08-22T11:02:53.091Z,2.83
2022-08-22T11:05:50.264Z,3.63
2022-08-22T11:09:19.827Z,2.97
2022-08-22T11:12:34.813Z,2.80
2022-08-22T11:16:13.013Z,2.60
2022-08-22T11:19:33.084Z,2.85
2022-08-22T11:22:41.388Z,3.13
2022-08-22T11:25:53.737Z,3.30
2022-08-22T11:29:14.042Z,2.80
2022-08-22T11:32:16.959Z,2.97
2022-08-22T11:35:21.810Z,2.83
2022-08-22T11:38:36.270Z,2.50
2022-08-22T11:41:54.247Z,2.70
2022-08-22T11:45:00.366Z,2.50
2022-08-22T11:48:02.502Z,2.50
2022-08-22T11:51:13.107Z,2.38
2022-08-22T11:54:21.396Z,3.08
2022-08-22T11:57:36.212Z,2.70
2022-08-22T12:00:57.386Z,2.72
2022-08-22T12:04:09.919Z,3.25
2022-08-22T12:07:12.358Z,3.00
2022-08-22T12:10:28.355Z,2.90
2022-08-22T12:13:40.273Z,2.75
2022-08-22T12:16:50.906Z,2.70
2022-08-22T12:20:32.490Z,2.53
2022-08-22T12:23:48.514Z,2.45
2022-08-22T12:27:12.799Z,2.80
2022-08-22T12:30:45.982Z,3.08
2022-08-22T12:34:13.997Z,3.15
2022-08-22T12:37:29.865Z,3.05
2022-08-22T12:40:27.265Z,2.60
2022-08-22T12:43:42.716Z,2.70
2022-08-22T12:47:00.336Z,2.70
2022-08-22T12:50:13.461Z,3.30
2022-08-22T12:53:53.666Z,2.85
2022-08-22T12:56:47.458Z,2.92
2022-08-22T12:59:44.029Z,2.85
2022-08-22T13:02:39.415Z,2.72
2022-08-22T13:05:34.196Z,2.42
2022-08-22T13:08:43.484Z,3.10
2022-08-22T13:11:38.234Z,2.90
2022-08-22T13:14:31.896Z,3.17
2022-08-22T13:17:25.258Z,3.03
2022-08-22T13:23:30.433Z,2.72
2022-08-22T13:26:31.796Z,2.67
2022-08-22T13:29:42.690Z,2.95
2022-08-22T13:32:44.475Z,2.97
2022-08-22T13:35:56.499Z,2.90
2022-08-22T13:39:09.557Z,2.80
2022-08-22T13:42:14.289Z,2.50
2022-08-22T13:45:14.078Z,3.15
2022-08-22T13:48:28.523Z,3.05
2022-08-22T13:54:16.389Z,2.83
2022-08-22T13:57:31.219Z,2.63
2022-08-22T14:01:03.731Z,3.08
2022-08-22T14:04:28.619Z,2.45
2022-08-22T14:08:01.594Z,2.80
2022-08-22T14:10:55.638Z,2.75
2022-08-22T14:14:01.119Z,3.03
2022-08-22T14:16:53.969Z,2.90
2022-08-22T14:19:59.485Z,2.88
2022-08-22T14:23:24.088Z,2.97
2022-08-22T14:26:33.106Z,2.70
2022-08-22T14:29:34.705Z,2.95
2022-08-22T14:32:42.075Z,2.53
2022-08-22T14:35:52.872Z,3.00
2022-08-22T14:38:53.333Z,2.85
2022-08-22T14:41:58.651Z,2.80
2022-08-22T14:45:08.672Z,2.70
2022-08-22T14:48:30.850Z,2.38
2022-08-22T14:51:25.692Z,2.45
2022-08-22T14:54:21.589Z,2.90
2022-08-22T14:57:19.918Z,2.72
2022-08-22T15:00:12.538Z,2.78
2022-08-22T15:03:10.726Z,2.88
2022-08-22T15:06:12.430Z,2.90
2022-08-22T15:09:26.631Z,2.47
2022-08-22T15:12:39.318Z,2.70
2022-08-22T15:15:49.376Z,3.08
2022-08-22T15:18:51.592Z,2.58
2022-08-22T15:21:42.605Z,2.80
2022-08-22T15:24:33.265Z,2.47
2022-08-22T15:27:25.629Z,2.53
2022-08-22T15:30:32.904Z,2.28
2022-08-22T15:33:27.125Z,2.92
2022-08-22T15:36:25.845Z,2.60
2022-08-22T15:39:38.084Z,2.60
2022-08-22T15:42:32.587Z,2.97
2022-08-22T15:45:36.209Z,2.50
2022-08-22T15:52:00.819Z,2.58
2022-08-22T15:54:54.551Z,2.78
2022-08-22T15:58:00.195Z,2.60
2022-08-22T16:01:34.830Z,2.50
2022-08-22T16:04:36.579Z,2.30
2022-08-22T16:07:32.735Z,2.30
2022-08-22T16:10:23.075Z,2.33
2022-08-22T16:13:35.525Z,2.10
2022-08-22T16:16:49.967Z,2.58
2022-08-22T16:19:39.756Z,2.60
2022-08-22T16:22:57.870Z,2.50
2022-08-22T16:25:47.807Z,2.42
2022-08-22T16:29:00.242Z,2.50
2022-08-22T16:31:52.816Z,2.28
2022-08-22T16:34:45.779Z,2.80
2022-08-22T16:37:47.997Z,2.40
2022-08-22T16:40:47.201Z,2.50
2022-08-22T16:43:37.422Z,2.10
2022-08-22T16:46:45.587Z,2.25
2022-08-22T16:49:53.340Z,2.30
2022-08-22T16:53:04.645Z,2.08
2022-08-22T16:56:14.842Z,3.05
2022-08-22T16:59:23.548Z,2.60
2022-08-22T17:02:36.396Z,2.60
2022-08-22T17:05:39.037Z,2.28
2022-08-22T17:08:50.417Z,2.20
2022-08-22T17:11:53.394Z,2.28
2022-08-22T17:15:14.897Z,2.40
2022-08-22T17:18:42.924Z,2.10
2022-08-22T17:21:50.645Z,2.03
2022-08-22T17:24:59.865Z,2.28
2022-08-22T17:28:03.216Z,2.00
2022-08-22T17:31:25.258Z,2.58
2022-08-22T17:34:38.339Z,2.17
2022-08-22T17:37:45.791Z,2.55
2022-08-22T17:40:45.413Z,1.95
2022-08-22T17:43:57.074Z,2.10
2022-08-22T17:46:54.132Z,1.80
2022-08-22T17:50:09.301Z,2.22
2022-08-22T17:53:05.472Z,2.05
2022-08-22T17:56:05.074Z,2.00
2022-08-22T17:59:05.806Z,2.08
2022-08-22T18:01:59.720Z,1.92
2022-08-22T18:05:12.705Z,1.92
2022-08-22T18:08:37.584Z,2.30
2022-08-22T18:11:40.081Z,2.28
2022-08-22T18:14:49.105Z,2.20
2022-08-22T18:17:59.427Z,2.30
2022-08-22T18:21:34.144Z,2.45
2022-08-22T18:27:44.235Z,2.35
2022-08-22T18:30:49.051Z,2.22
2022-08-22T18:36:49.675Z,2.00
2022-08-22T18:40:01.045Z,2.28
2022-08-22T18:43:17.925Z,2.70
2022-08-22T18:46:31.676Z,2.15
2022-08-22T18:49:21.950Z,2.35
2022-08-22T18:52:16.993Z,2.20
2022-08-22T18:55:45.449Z,1.90
2022-08-22T18:58:47.918Z,2.03
2022-08-22T19:02:00.303Z,2.50
2022-08-22T19:05:26.081Z,2.25
2022-08-22T19:08:51.663Z,2.30
2022-08-22T19:12:14.392Z,2.03
2022-08-22T19:15:13.655Z,2.17
2022-08-22T19:18:06.924Z,2.17
2022-08-22T19:21:45.538Z,2.20
2022-08-22T19:25:04.379Z,2.35
2022-08-22T19:28:06.810Z,2.45
2022-08-22T19:31:22.408Z,2.25
2022-08-22T19:34:15.432Z,2.47
2022-08-22T19:37:32.390Z,2.50
2022-08-22T19:40:45.860Z,2.00
2022-08-22T19:43:40.391Z,2.40
2022-08-22T19:46:40.027Z,2.38
2022-08-22T19:49:36.234Z,2.35
2022-08-22T19:52:38.319Z,2.20
2022-08-22T19:55:37.520Z,2.42
2022-08-22T19:58:41.076Z,2.30
2022-08-22T20:01:49.801Z,2.17
2022-08-22T20:04:45.715Z,2.58
2022-08-22T20:07:58.390Z,2.40
2022-08-22T20:11:04.006Z,2.47
2022-08-22T20:14:10.980Z,2.42
2022-08-22T20:17:24.529Z,2.55
2022-08-22T20:20:30.510Z,2.10
2022-08-22T20:23:30.579Z,2.33
2022-08-22T20:26:21.943Z,2.33
2022-08-22T20:29:12.052Z,2.28
2022-08-22T20:32:04.309Z,2.25
2022-08-22T20:35:00.620Z,2.22
2022-08-22T20:38:06.742Z,2.47
2022-08-22T20:41:22.591Z,2.13
2022-08-22T20:44:15.866Z,2.10
2022-08-22T20:47:13.321Z,2.33
2022-08-22T20:50:11.864Z,3.05
2022-08-22T20:53:16.861Z,2.30
2022-08-22T20:56:09.535Z,2.63
2022-08-22T20:59:01.357Z,2.40
2022-08-22T21:02:33.357Z,2.20
2022-08-22T21:05:32.071Z,2.95
2022-08-22T21:08:26.632Z,2.45
2022-08-22T21:11:40.425Z,2.00
2022-08-22T21:14:37.507Z,2.03
2022-08-22T21:17:34.331Z,2.80
2022-08-22T21:20:31.905Z,2.65
2022-08-22T21:23:22.151Z,2.42
2022-08-22T21:26:22.311Z,2.20
2022-08-22T21:29:12.225Z,2.55
2022-08-22T21:32:24.563Z,2.30
2022-08-22T21:35:33.422Z,2.33
2022-08-22T21:38:23.544Z,2.63
2022-08-22T21:41:17.554Z,2.30
2022-08-22T21:44:28.370Z,2.83
2022-08-22T21:47:30.766Z,2.53
2022-08-22T21:50:23.246Z,2.50
2022-08-22T21:53:30.376Z,2.92
2022-08-22T21:56:28.788Z,2.50
2022-08-22T21:59:50.729Z,2.60
2022-08-22T22:02:41.433Z,2.60
2022-08-22T22:05:31.797Z,2.67
2022-08-22T22:08:22.368Z,2.67
2022-08-22T22:11:14.515Z,2.70
2022-08-22T22:14:05.050Z,2.78
2022-08-22T22:16:55.127Z,2.70
2022-08-22T22:19:45.832Z,2.85
2022-08-22T22:22:37.075Z,2.95
2022-08-22T22:25:42.236Z,3.00
2022-08-22T22:28:36.678Z,3.10
2022-08-22T22:34:17.582Z,3.22
2022-08-22T22:37:09.092Z,2.92
2022-08-22T22:40:07.041Z,3.17
2022-08-22T22:42:57.697Z,2.90
2022-08-22T22:45:48.024Z,3.55
2022-08-22T22:48:38.533Z,2.70
2022-08-22T22:51:28.413Z,2.83
2022-08-22T22:54:18.994Z,2.97
2022-08-22T22:57:25.414Z,2.58
2022-08-22T23:00:16.514Z,2.80
2022-08-22T23:03:06.854Z,2.47
2022-08-22T23:05:57.740Z,2.60
2022-08-22T23:08:48.452Z,2.72
2022-08-22T23:11:38.813Z,2.70
2022-08-22T23:14:30.725Z,2.70
2022-08-22T23:17:20.920Z,3.00
2022-08-22T23:20:11.344Z,2.75
2022-08-22T23:23:01.545Z,2.50
2022-08-22T23:25:51.737Z,2.88
2022-08-22T23:28:41.722Z,2.50
2022-08-22T23:31:36.249Z,2.80
2022-08-22T23:34:33.391Z,2.80
2022-08-22T23:37:23.777Z,2.53
2022-08-22T23:40:14.159Z,3.00
2022-08-22T23:43:04.382Z,2.70
2022-08-22T23:45:54.811Z,2.67
2022-08-22T23:48:45.360Z,2.60
2022-08-22T23:51:35.729Z,3.13
2022-08-22T23:54:26.091Z,2.90
2022-08-22T23:57:16.331Z,2.70
